UTDD

Details ICAO UTDD (DYU)
Name DUSHANBE
Region Tajikistan, Turkmenistan and Uzbekistan
Timezone Asia/Dushanbe (UTC+5.0)
Plans Departing 91
Arriving 86
Stats Elevation 2,575 ft / 785 m (AMSL)
Location 38.543486° 68.824637°
Runways 1
Magnetic Variation 4.445° E
Sunrise 2017-12-18 02:38:16 UTC / 2017-12-18 07:38:16 Local
Sunset 2017-12-18 12:06:53 UTC / 2017-12-18 17:06:53 Local
Advertisement - Login to hide

Runways

ID Width Length Bearing (true) Bearing (mag) Surface Threshold Offset Overrun Length
09 147 ft / 45 m 10,157 ft / 3,096 m 90.06° 85.61° Asphalt 0 ft / 0 m 0 ft / 0 m
27 147 ft / 45 m 10,157 ft / 3,096 m 270.08° 265.63° Asphalt 1,335 ft / 407 m 0 ft / 0 m

Map

Weather


0- 5 10 15 20 25 30 35+ Temperature / ° C

Clouds and Precipitation
Forecast for 2017-12-18 00:00 UTC. Updated 27 minutes ago

Ground ~20,000 ft ~40,000 ft Winds

METAR

UTDD 172130Z VRB02MPS 9999 BKN091 OVC110 06/M01 Q1026 R09/D NOSIG RMK QFE700/0934

TAF

TAF TAF UTDD 172100Z 1722/1810 VRB02MPS 5000 BR FU SCT066CB BKN100 TEMPO 1722/1802 2100 BR FU TEMPO 1802/1807 1000 BR FU

Frequencies

Recorded 126.20 MHz ATIS
Tower 119.20 MHz TWR
Ground 121.70 MHz GND
Approach 127.10 MHz APP
Warning: Do not use this data for real-world aviation or navigation. No guarantee of current accuracy is given.